Time;durP1;ratioP1;P1;durP2;ratioP2;P2;SDS_P1;SDS_P2;PMS_P1;PMS_P2;Temp;Humidity;BMP_temperature;BMP_pressure;BME280_temperature;BME280_humidity;BME280_pressure;Samples;Min_cycle;Max_cycle;Signal;HPM_P1;HPM_P2
2022/06/17 00:01:53;;;;;;;;;;;;;;;11.77;86.92;100072.09;5031271;28;878;-60
2022/06/17 00:04:19;;;;;;;;;;;;;;;11.85;86.58;100073.63;5013746;28;1172;-60
2022/06/17 00:06:48;;;;;;;;;;;;;;;11.92;85.76;100068.06;5031366;28;818;-60
2022/06/17 00:09:16;;;;;;;;;;;;;;;11.95;85.94;100072.00;5031969;28;830;-60
2022/06/17 00:11:42;;;;;;;;;;;;;;;11.96;85.84;100066.06;5031583;28;806;-60
2022/06/17 00:14:18;;;;;;;;;;;;;;;11.98;85.62;100069.22;5031558;28;1890;-60
2022/06/17 00:16:45;;;;;;;;;;;;;;;11.97;86.11;100066.84;5031174;28;869;-60
2022/06/17 00:19:12;;;;;;;;;;;;;;;11.97;86.07;100062.13;5031319;28;873;-60
2022/06/17 00:21:40;;;;;;;;;;;;;;;11.96;85.98;100049.44;5031321;28;897;-60
2022/06/17 00:24:17;;;;;;;;;;;;;;;11.94;86.03;100049.06;5031300;28;924;-60
2022/06/17 00:26:44;;;;;;;;;;;;;;;11.95;85.87;100044.31;5031336;28;878;-60
2022/06/17 00:29:14;;;;;;;;;;;;;;;11.90;86.40;100044.75;5031114;28;925;-60
2022/06/17 00:31:40;;;;;;;;;;;;;;;11.84;86.89;100047.13;5031395;28;904;-60
2022/06/17 00:34:07;;;;;;;;;;;;;;;11.84;87.70;100044.34;5031311;28;1910;-60
2022/06/17 00:36:34;;;;;;;;;;;;;;;11.83;88.11;100042.78;5031364;28;823;-60
2022/06/17 00:39:01;;;;;;;;;;;;;;;11.82;88.49;100036.47;5031241;28;865;-60
2022/06/17 00:41:30;;;;;;;;;;;;;;;11.83;88.50;100031.72;5031853;28;803;-60
2022/06/17 00:43:58;;;;;;;;;;;;;;;11.84;88.62;100028.53;5030838;28;1461;-60
2022/06/17 00:46:25;;;;;;;;;;;;;;;11.83;89.06;100028.94;5030849;28;830;-59
2022/06/17 00:48:58;;;;;;;;;;;;;;;11.84;89.29;100028.53;5031046;28;901;-60
2022/06/17 00:51:27;;;;;;;;;;;;;;;11.83;89.06;100028.94;5031629;28;795;-60
2022/06/17 00:54:01;;;;;;;;;;;;;;;11.82;89.56;100019.84;5034359;28;1902;-60
2022/06/17 00:56:32;;;;;;;;;;;;;;;11.80;89.79;100024.22;5034735;28;846;-60
2022/06/17 00:59:02;;;;;;;;;;;;;;;11.77;89.78;100023.03;5034962;28;894;-60
2022/06/17 01:01:32;;;;;;;;;;;;;;;11.79;89.48;100037.25;5034275;28;850;-60
2022/06/17 01:04:01;;;;;;;;;;;;;;;11.76;89.13;100034.53;5034301;28;1091;-60
2022/06/17 01:06:33;;;;;;;;;;;;;;;11.76;89.45;100031.75;5034212;28;891;-60
2022/06/17 01:11:51;;;;;;;;;;;;;;;11.72;88.79;100031.00;5034459;28;1893;-60
2022/06/17 01:14:19;;;;;;;;;;;;;;;11.73;88.04;100027.78;5016501;28;815;-60
2022/06/17 01:16:47;;;;;;;;;;;;;;;11.77;87.53;100031.34;5034078;28;890;-60
2022/06/17 01:19:17;;;;;;;;;;;;;;;11.80;87.03;100019.47;5034104;28;814;-60
2022/06/17 01:21:57;;;;;;;;;;;;;;;11.83;87.08;100015.09;5034333;28;803;-60
2022/06/17 01:24:24;;;;;;;;;;;;;;;11.87;87.13;100015.84;5034137;28;885;-60
2022/06/17 01:26:51;;;;;;;;;;;;;;;11.90;87.23;100014.28;5034152;28;916;-60
2022/06/17 01:29:18;;;;;;;;;;;;;;;11.89;86.90;100005.19;5033917;28;918;-60
2022/06/17 01:31:48;;;;;;;;;;;;;;;11.87;87.05;100004.00;5033945;28;830;-60
2022/06/17 01:34:15;;;;;;;;;;;;;;;11.88;87.39;100000.03;5033858;28;889;-60
2022/06/17 01:36:43;;;;;;;;;;;;;;;11.88;87.61;99992.53;5033803;28;814;-60
2022/06/17 01:39:11;;;;;;;;;;;;;;;11.86;87.94;99992.09;5033736;28;811;-60
2022/06/17 01:41:39;;;;;;;;;;;;;;;11.84;88.44;100006.38;5033646;28;965;-60
2022/06/17 01:44:05;;;;;;;;;;;;;;;11.87;89.20;99998.47;5033465;28;1258;-60
2022/06/17 01:46:42;;;;;;;;;;;;;;;11.87;89.49;100001.22;5033638;28;834;-60
2022/06/17 01:49:09;;;;;;;;;;;;;;;11.87;89.52;99990.94;5033634;28;810;-60
2022/06/17 01:51:38;;;;;;;;;;;;;;;11.90;90.16;99987.38;5015781;28;845;-60
2022/06/17 01:54:15;;;;;;;;;;;;;;;11.90;90.07;99992.13;5033453;28;1914;-60
2022/06/17 01:56:43;;;;;;;;;;;;;;;11.88;90.87;99978.66;5033493;28;842;-60
2022/06/17 01:59:17;;;;;;;;;;;;;;;11.90;90.87;99992.91;5033612;28;931;-60
2022/06/17 02:01:45;;;;;;;;;;;;;;;11.88;91.38;99986.97;5033386;28;822;-60
2022/06/17 02:04:21;;;;;;;;;;;;;;;11.85;91.72;99983.03;5033018;28;830;-60
2022/06/17 02:06:47;;;;;;;;;;;;;;;11.80;92.00;99979.91;5033192;28;814;-60
2022/06/17 02:09:14;;;;;;;;;;;;;;;11.77;92.21;99980.72;5033233;28;878;-60
2022/06/17 02:11:41;;;;;;;;;;;;;;;11.72;92.46;99976.41;5033124;28;866;-60
2022/06/17 02:14:08;;;;;;;;;;;;;;;11.65;92.59;99973.69;5032928;28;1882;-60
2022/06/17 02:16:36;;;;;;;;;;;;;;;11.55;92.84;99974.53;5033059;28;835;-60
2022/06/17 02:19:03;;;;;;;;;;;;;;;11.44;92.77;99978.16;5032944;28;869;-60
2022/06/17 02:21:34;;;;;;;;;;;;;;;11.37;93.07;99977.38;5032948;28;827;-60
2022/06/17 02:24:02;;;;;;;;;;;;;;;11.35;93.71;99980.56;5033203;28;834;-60
2022/06/17 02:26:30;;;;;;;;;;;;;;;11.31;94.24;99984.53;5033062;28;842;-60
2022/06/17 02:28:56;;;;;;;;;;;;;;;11.22;94.62;99982.19;5032815;28;827;-60
2022/06/17 02:31:23;;;;;;;;;;;;;;;11.15;95.53;99982.25;5033361;28;971;-60
2022/06/17 02:33:51;;;;;;;;;;;;;;;11.08;95.67;99982.28;5032856;28;1952;-60
2022/06/17 02:36:31;;;;;;;;;;;;;;;11.03;96.12;99981.50;5032571;28;911;-60
2022/06/17 02:38:59;;;;;;;;;;;;;;;11.07;96.29;99980.69;5032578;28;811;-60
2022/06/17 02:41:28;;;;;;;;;;;;;;;11.11;96.18;99979.50;5032569;28;898;-60
2022/06/17 02:44:00;;;;;;;;;;;;;;;11.14;96.37;99983.44;5011302;28;1266;-60
2022/06/17 02:46:32;;;;;;;;;;;;;;;11.15;96.16;99983.03;5012701;28;822;-59
2022/06/17 02:49:00;;;;;;;;;;;;;;;11.20;96.71;99981.81;5012686;28;855;-60
2022/06/17 02:51:29;;;;;;;;;;;;;;;11.24;96.18;99982.59;5012530;28;1016;-59
2022/06/17 02:53:56;;;;;;;;;;;;;;;11.27;95.80;99981.81;5012562;28;1972;-60
2022/06/17 02:56:26;;;;;;;;;;;;;;;11.31;95.64;99982.56;5012562;28;823;-60
2022/06/17 02:58:52;;;;;;;;;;;;;;;11.41;94.98;99983.69;5012523;28;795;-60
2022/06/17 03:01:21;;;;;;;;;;;;;;;11.51;94.61;99976.53;5012415;28;847;-60
2022/06/17 03:03:50;;;;;;;;;;;;;;;11.59;93.63;99987.16;5012434;28;809;-60
2022/06/17 03:06:21;;;;;;;;;;;;;;;11.64;93.13;99981.19;5012327;28;895;-60
2022/06/17 03:08:50;;;;;;;;;;;;;;;11.72;92.80;99983.91;5012674;28;847;-60
2022/06/17 03:11:18;;;;;;;;;;;;;;;11.75;92.46;99981.09;5012385;28;977;-59
2022/06/17 03:13:48;;;;;;;;;;;;;;;11.80;91.55;99982.69;5011717;28;1886;-60
2022/06/17 03:16:15;;;;;;;;;;;;;;;11.84;91.37;99992.53;5012436;28;882;-60
2022/06/17 03:18:43;;;;;;;;;;;;;;;11.92;91.14;99984.19;5012311;28;869;-60
2022/06/17 03:21:10;;;;;;;;;;;;;;;11.95;90.64;99981.41;5012388;28;894;-60
2022/06/17 03:23:48;;;;;;;;;;;;;;;12.00;90.28;99974.63;5012115;28;834;-60
2022/06/17 03:26:18;;;;;;;;;;;;;;;12.04;90.16;99975.41;5012436;28;811;-60
2022/06/17 03:28:48;;;;;;;;;;;;;;;12.10;90.10;99970.19;5012368;28;869;-60
2022/06/17 03:31:21;;;;;;;;;;;;;;;12.17;89.80;99968.16;5012396;28;963;-58
2022/06/17 03:33:51;;;;;;;;;;;;;;;12.24;89.42;99975.63;5011844;28;1918;-58
2022/06/17 03:36:32;;;;;;;;;;;;;;;12.31;89.37;99974.75;5011938;28;842;-60
2022/06/17 03:39:01;;;;;;;;;;;;;;;12.39;89.12;99979.81;5011934;28;815;-60
2022/06/17 03:41:50;;;;;;;;;;;;;;;12.50;88.81;99976.94;5011908;28;826;-59
2022/06/17 03:44:19;;;;;;;;;;;;;;;12.63;88.75;99985.53;4988711;28;1352;-61
2022/06/17 03:46:51;;;;;;;;;;;;;;;12.76;87.91;99981.06;4992323;28;886;-60
2022/06/17 03:49:18;;;;;;;;;;;;;;;12.90;86.99;99973.75;4992191;28;927;-60
2022/06/17 03:51:44;;;;;;;;;;;;;;;13.04;86.94;99968.84;4992244;28;870;-60
2022/06/17 03:54:13;;;;;;;;;;;;;;;13.19;86.23;99968.66;4992281;28;1968;-60
2022/06/17 03:56:41;;;;;;;;;;;;;;;13.35;85.56;99973.63;4992165;28;882;-60
2022/06/17 03:59:14;;;;;;;;;;;;;;;13.50;85.12;99968.66;4992133;28;803;-60
2022/06/17 04:01:42;;;;;;;;;;;;;;;13.63;83.91;99966.88;4992410;28;823;-60
2022/06/17 04:04:15;;;;;;;;;;;;;;;13.76;82.89;99972.63;4992182;28;835;-60
2022/06/17 04:06:43;;;;;;;;;;;;;;;13.87;82.69;99968.50;4992037;28;827;-60
2022/06/17 04:09:23;;;;;;;;;;;;;;;13.99;81.87;99971.88;4992123;28;846;-60
2022/06/17 04:11:51;;;;;;;;;;;;;;;14.11;81.54;99971.28;4992072;28;814;-60
2022/06/17 04:14:21;;;;;;;;;;;;;;;14.20;81.28;99965.97;4992051;28;1946;-60
2022/06/17 04:16:57;;;;;;;;;;;;;;;14.30;80.81;99964.22;4991971;28;886;-60
2022/06/17 04:19:25;;;;;;;;;;;;;;;14.39;80.50;99961.66;4991942;28;807;-60
2022/06/17 04:21:56;;;;;;;;;;;;;;;14.54;80.04;99967.75;4992039;28;866;-61
2022/06/17 04:24:24;;;;;;;;;;;;;;;14.66;79.43;99972.72;4991875;28;874;-60
2022/06/17 04:26:56;;;;;;;;;;;;;;;14.90;79.10;99964.31;4995399;28;783;-60
2022/06/17 04:29:29;;;;;;;;;;;;;;;15.08;77.78;99959.19;4995695;28;982;-60
2022/06/17 04:32:02;;;;;;;;;;;;;;;15.16;78.19;99959.03;4994423;28;1439;-61
2022/06/17 04:34:28;;;;;;;;;;;;;;;15.28;78.47;99963.94;4995632;28;870;-60
2022/06/17 04:36:59;;;;;;;;;;;;;;;15.45;78.43;99965.53;4995617;28;883;-60
2022/06/17 04:39:28;;;;;;;;;;;;;;;15.66;78.60;99961.50;4995457;28;1048;-60
2022/06/17 04:41:57;;;;;;;;;;;;;;;15.79;78.59;99964.41;4995664;28;870;-60
2022/06/17 04:44:23;;;;;;;;;;;;;;;15.92;78.76;99968.06;5032382;28;1490;-60
2022/06/17 04:47:03;;;;;;;;;;;;;;;15.94;78.90;99959.28;5034716;28;929;-60
2022/06/17 04:49:32;;;;;;;;;;;;;;;15.99;78.97;99969.91;5034708;28;881;-60
2022/06/17 04:52:05;;;;;;;;;;;;;;;16.08;79.10;99972.06;5034516;28;1914;-60
2022/06/17 04:54:32;;;;;;;;;;;;;;;16.22;79.06;99971.72;5034965;28;799;-60
2022/06/17 04:57:01;;;;;;;;;;;;;;;16.33;78.58;99965.88;5016871;28;1165;-60
2022/06/17 04:59:36;;;;;;;;;;;;;;;16.49;78.30;99973.41;5034774;28;886;-61
2022/06/17 05:02:04;;;;;;;;;;;;;;;16.67;77.58;99970.94;5034469;28;823;-60
2022/06/17 05:04:32;;;;;;;;;;;;;;;16.86;76.81;99966.47;5034425;28;902;-60
2022/06/17 05:06:59;;;;;;;;;;;;;;;17.05;76.09;99977.91;5034352;28;842;-60
2022/06/17 05:09:42;;;;;;;;;;;;;;;17.19;75.08;99979.50;5016603;28;1168;-60
2022/06/17 05:12:14;;;;;;;;;;;;;;;17.49;73.55;99981.75;5034128;28;1949;-60
2022/06/17 05:14:51;;;;;;;;;;;;;;;17.62;72.01;99978.97;5034246;28;942;-60
2022/06/17 05:17:17;;;;;;;;;;;;;;;17.72;71.27;99980.66;5034338;28;877;-60
2022/06/17 05:19:45;;;;;;;;;;;;;;;17.90;70.73;99979.34;5034294;28;886;-60
2022/06/17 05:22:14;;;;;;;;;;;;;;;18.08;70.19;99976.75;5034187;28;881;-60
2022/06/17 05:24:42;;;;;;;;;;;;;;;18.34;70.41;99979.50;5034100;28;865;-59
2022/06/17 05:27:09;;;;;;;;;;;;;;;18.86;70.12;99974.50;5033996;28;818;-60
2022/06/17 05:29:36;;;;;;;;;;;;;;;19.62;68.60;99981.66;5034245;28;974;-60
2022/06/17 05:32:04;;;;;;;;;;;;;;;20.32;65.30;99972.84;5033839;28;1886;-60
2022/06/17 05:34:30;;;;;;;;;;;;;;;20.91;63.54;99981.94;5033898;28;814;-60
2022/06/17 05:36:57;;;;;;;;;;;;;;;21.37;63.21;99975.44;5033110;28;909;-60
2022/06/17 05:39:24;;;;;;;;;;;;;;;21.76;61.04;99978.44;5034005;28;819;-60
2022/06/17 05:41:50;;;;;;;;;;;;;;;21.93;61.16;99973.97;5033576;28;930;-60
2022/06/17 05:44:17;;;;;;;;;;;;;;;22.45;60.41;99968.22;5033455;28;1201;-60
2022/06/17 05:46:44;;;;;;;;;;;;;;;23.08;58.18;99967.38;5033716;28;815;-60
2022/06/17 05:49:12;;;;;;;;;;;;;;;23.59;56.31;99971.84;5033607;28;866;-60
2022/06/17 05:51:39;;;;;;;;;;;;;;;24.20;54.88;99965.56;5033578;28;803;-60
2022/06/17 05:54:06;;;;;;;;;;;;;;;24.94;52.65;99962.31;5033400;28;1974;-60
2022/06/17 05:56:33;;;;;;;;;;;;;;;25.46;49.44;99970.81;5033516;28;913;-60
2022/06/17 05:59:00;;;;;;;;;;;;;;;25.99;48.38;99962.16;4999346;28;886;-61
2022/06/17 06:01:26;;;;;;;;;;;;;;;26.70;45.35;99967.16;5033337;28;810;-60
2022/06/17 06:03:53;;;;;;;;;;;;;;;27.20;44.76;99963.63;5033362;28;799;-61
2022/06/17 06:06:20;;;;;;;;;;;;;;;27.63;41.88;99974.72;5033243;28;885;-61
2022/06/17 06:08:47;;;;;;;;;;;;;;;27.99;40.37;99970.06;5033290;28;886;-61
2022/06/17 06:11:14;;;;;;;;;;;;;;;28.42;39.18;99964.00;5033002;28;883;-60
2022/06/17 06:13:41;;;;;;;;;;;;;;;28.95;38.79;99971.72;5033043;28;1882;-61
2022/06/17 06:16:08;;;;;;;;;;;;;;;29.46;38.43;99970.06;5033038;28;857;-61
2022/06/17 06:18:36;;;;;;;;;;;;;;;29.86;37.00;99964.81;5033283;28;869;-61
2022/06/17 06:21:06;;;;;;;;;;;;;;;30.25;35.50;99965.69;5032946;28;849;-62
2022/06/17 06:23:34;;;;;;;;;;;;;;;30.56;34.74;99969.22;5032951;28;823;-61
2022/06/17 06:26:01;;;;;;;;;;;;;;;31.03;34.25;99966.00;5032895;28;932;-61
2022/06/17 06:28:28;;;;;;;;;;;;;;;31.24;33.58;99955.53;5032792;28;835;-62
2022/06/17 06:30:59;;;;;;;;;;;;;;;31.61;33.57;99950.25;5033169;28;897;-61
2022/06/17 06:33:26;;;;;;;;;;;;;;;31.84;33.84;99950.63;5032652;28;1906;-61
2022/06/17 06:35:52;;;;;;;;;;;;;;;32.10;32.28;99949.88;5032747;28;897;-61
2022/06/17 06:38:20;;;;;;;;;;;;;;;32.25;32.92;99947.22;5032647;28;870;-61
2022/06/17 06:40:47;;;;;;;;;;;;;;;32.33;32.35;99942.38;5032406;28;961;-61
2022/06/17 06:43:20;;;;;;;;;;;;;;;31.91;32.16;99945.00;5032361;28;1218;-62
2022/06/17 06:45:49;;;;;;;;;;;;;;;31.87;31.85;99938.84;5032449;28;838;-61
2022/06/17 06:48:17;;;;;;;;;;;;;;;31.62;31.80;99940.34;5032809;28;843;-60
2022/06/17 06:50:45;;;;;;;;;;;;;;;31.53;31.30;99939.47;5031821;28;819;-61
2022/06/17 06:53:11;;;;;;;;;;;;;;;32.05;31.88;99933.59;5032399;28;1977;-61
2022/06/17 06:55:39;;;;;;;;;;;;;;;32.55;31.14;99935.41;5032497;28;909;-60
2022/06/17 06:58:13;;;;;;;;;;;;;;;33.31;30.49;99934.69;5032341;28;827;-60
2022/06/17 07:00:42;;;;;;;;;;;;;;;33.40;29.75;99926.94;5032233;28;913;-60
2022/06/17 07:03:09;;;;;;;;;;;;;;;33.62;29.40;99937.81;5032132;28;844;-61
2022/06/17 07:05:36;;;;;;;;;;;;;;;33.75;29.27;99931.22;5031613;28;896;-61
2022/06/17 07:08:04;;;;;;;;;;;;;;;34.28;28.94;99933.66;5032159;28;850;-61
2022/06/17 07:10:33;;;;;;;;;;;;;;;34.22;28.44;99930.19;5032079;28;838;-62
2022/06/17 07:13:00;;;;;;;;;;;;;;;33.71;28.78;99925.09;5032002;28;1945;-61
2022/06/17 07:15:28;;;;;;;;;;;;;;;33.73;28.47;99923.19;5032055;28;909;-61
2022/06/17 07:17:55;;;;;;;;;;;;;;;33.31;28.56;99925.34;5032088;28;901;-61
2022/06/17 07:20:21;;;;;;;;;;;;;;;33.22;27.72;99920.84;5032027;28;855;-61
2022/06/17 07:22:48;;;;;;;;;;;;;;;32.99;28.14;99920.63;5014158;28;1586;-61
2022/06/17 07:25:14;;;;;;;;;;;;;;;33.45;27.85;99920.28;5031876;28;890;-61
2022/06/17 07:27:41;;;;;;;;;;;;;;;33.76;27.78;99922.09;5031796;28;807;-61
2022/06/17 07:30:14;;;;;;;;;;;;;;;33.92;28.29;99920.06;5031691;28;904;-61
2022/06/17 07:32:42;;;;;;;;;;;;;;;33.84;26.92;99912.75;5031631;28;1878;-62
2022/06/17 07:35:10;;;;;;;;;;;;;;;33.96;26.41;99914.72;5031995;28;826;-61
2022/06/17 07:40:22;;;;;;;;;;;;;;;34.44;26.06;99911.56;5031536;28;684;-61
2022/06/17 07:42:49;;;;;;;;;;;;;;;34.36;24.99;99905.78;5031546;28;1325;-61
2022/06/17 07:45:17;;;;;;;;;;;;;;;33.90;24.61;99907.63;5031549;28;972;-61
2022/06/17 07:47:44;;;;;;;;;;;;;;;33.74;25.75;99901.81;5031532;28;827;-61
2022/06/17 07:50:13;;;;;;;;;;;;;;;33.92;24.96;99900.00;5031560;28;798;-61
2022/06/17 07:52:40;;;;;;;;;;;;;;;33.97;25.61;99898.31;5031634;28;1907;-61
2022/06/17 07:55:08;;;;;;;;;;;;;;;34.27;25.70;99903.47;5031850;28;929;-61
2022/06/17 07:57:34;;;;;;;;;;;;;;;34.61;25.03;99895.91;5031858;28;854;-61
2022/06/17 08:00:04;;;;;;;;;;;;;;;34.53;25.17;99898.78;5032044;28;874;-61
2022/06/17 08:02:34;;;;;;;;;;;;;;;34.34;24.98;99888.38;5035731;28;965;-61
2022/06/17 08:05:01;;;;;;;;;;;;;;;34.18;24.72;99895.38;5035587;28;897;-63
2022/06/17 08:07:28;;;;;;;;;;;;;;;33.39;25.47;99894.66;5035468;28;901;-64
2022/06/17 08:09:54;;;;;;;;;;;;;;;33.17;27.08;99889.53;5035543;28;823;-64
2022/06/17 08:12:20;;;;;;;;;;;;;;;33.96;26.56;99893.91;5035247;28;1877;-64
2022/06/17 08:14:49;;;;;;;;;;;;;;;34.01;25.91;99886.47;5035648;28;819;-65
2022/06/17 08:17:17;;;;;;;;;;;;;;;33.92;25.84;99891.41;5035291;28;889;-63
2022/06/17 08:19:44;;;;;;;;;;;;;;;33.83;25.08;99894.03;5035308;28;854;-64
2022/06/17 08:22:12;;;;;;;;;;;;;;;33.58;25.78;99900.13;5035132;28;878;-64
2022/06/17 08:24:39;;;;;;;;;;;;;;;33.79;26.02;99893.63;5035172;28;795;-64
2022/06/17 08:27:07;;;;;;;;;;;;;;;34.25;26.39;99899.63;5035194;28;799;-63
2022/06/17 08:29:34;;;;;;;;;;;;;;;34.26;26.71;99895.41;5035059;28;921;-64
2022/06/17 08:34:46;;;;;;;;;;;;;;;33.98;26.32;99896.97;5034988;28;684;-64
2022/06/17 08:37:14;;;;;;;;;;;;;;;33.45;27.02;99891.66;5034810;28;834;-65
2022/06/17 08:39:44;;;;;;;;;;;;;;;33.65;27.42;99887.22;5034844;28;854;-65
2022/06/17 08:42:26;;;;;;;;;;;;;;;34.01;27.19;99892.97;5016964;28;1264;-67
2022/06/17 08:44:59;;;;;;;;;;;;;;;33.26;26.75;99897.59;5035104;28;827;-64
2022/06/17 08:59:37;;;;;;;;;;;;;;;32.16;27.57;99893.34;5034866;28;684;-65
2022/06/17 09:02:35;;;;;;;;;;;;;;;32.20;27.81;99896.66;5034564;28;838;-64
2022/06/17 09:08:25;;;;;;;;;;;;;;;32.34;27.49;99891.66;5034367;28;680;-64
2022/06/17 09:11:10;;;;;;;;;;;;;;;32.80;27.54;99897.16;5034448;28;889;-64
2022/06/17 09:13:40;;;;;;;;;;;;;;;32.14;27.92;99891.03;5033102;28;1898;-65
2022/06/17 09:16:33;;;;;;;;;;;;;;;32.10;29.33;99887.00;5034159;28;876;-65
2022/06/17 09:19:02;;;;;;;;;;;;;;;32.30;29.35;99879.78;5031672;28;1041;-67
2022/06/17 09:21:48;;;;;;;;;;;;;;;32.37;28.58;99886.91;5034115;28;902;-65
2022/06/17 09:24:18;;;;;;;;;;;;;;;32.18;29.92;99884.22;5034020;28;884;-63
2022/06/17 09:26:48;;;;;;;;;;;;;;;32.28;29.27;99874.63;5034013;28;889;-63
2022/06/17 09:29:18;;;;;;;;;;;;;;;32.48;29.33;99875.25;5034152;28;934;-63
2022/06/17 09:31:48;;;;;;;;;;;;;;;32.58;28.51;99876.31;5034037;28;905;-64
2022/06/17 09:34:23;;;;;;;;;;;;;;;32.68;29.72;99868.81;5034052;28;1895;-64
2022/06/17 09:36:53;;;;;;;;;;;;;;;32.44;29.88;99874.81;5033657;28;807;-65
2022/06/17 09:39:42;;;;;;;;;;;;;;;32.12;29.91;99879.38;5033816;28;831;-65
2022/06/17 09:42:32;;;;;;;;;;;;;;;31.68;29.14;99875.31;5033699;28;939;-65
2022/06/17 09:45:23;;;;;;;;;;;;;;;31.39;30.49;99877.94;4991435;28;1216;-65
2022/06/17 09:47:52;;;;;;;;;;;;;;;30.82;28.60;99877.31;4994503;28;886;-65
2022/06/17 09:50:22;;;;;;;;;;;;;;;30.19;31.30;99880.22;4994339;28;807;-64
2022/06/17 09:52:53;;;;;;;;;;;;;;;29.76;31.28;99875.31;4994424;28;1979;-65
2022/06/17 09:55:22;;;;;;;;;;;;;;;29.43;31.83;99882.13;4994336;28;835;-64
2022/06/17 09:58:06;;;;;;;;;;;;;;;29.50;34.01;99876.59;4994159;28;898;-65
2022/06/17 10:00:42;;;;;;;;;;;;;;;29.47;32.76;99874.84;4994100;28;914;-63
2022/06/17 10:31:45;;;;;;;;;;;;;;;29.93;32.88;99844.53;5230399;23;1661;-64
2022/06/17 10:34:18;;;;;;;;;;;;;;;29.93;33.07;99838.09;5053120;28;1910;-64
2022/06/17 10:36:45;;;;;;;;;;;;;;;30.01;33.38;99838.25;5052674;28;837;-64
2022/06/17 10:39:17;;;;;;;;;;;;;;;30.23;33.07;99837.94;5052617;28;834;-64
2022/06/17 10:41:44;;;;;;;;;;;;;;;30.64;33.57;99836.06;5052833;28;790;-63
2022/06/17 10:44:13;;;;;;;;;;;;;;;30.72;32.26;99834.91;5052542;28;814;-64
2022/06/17 10:46:44;;;;;;;;;;;;;;;30.74;32.54;99835.13;5052471;28;853;-64
2022/06/17 10:49:11;;;;;;;;;;;;;;;30.68;31.30;99831.63;5052404;28;842;-62
2022/06/17 10:51:38;;;;;;;;;;;;;;;30.65;31.50;99829.84;5052314;28;813;-63
2022/06/17 10:54:12;;;;;;;;;;;;;;;30.71;31.07;99833.38;5052255;28;1894;-64
2022/06/17 10:56:59;;;;;;;;;;;;;;;31.00;31.69;99830.84;5052563;28;826;-63
2022/06/17 10:59:34;;;;;;;;;;;;;;;31.47;32.48;99836.00;5051104;28;1199;-63
2022/06/17 11:02:01;;;;;;;;;;;;;;;31.58;30.81;99831.38;5052097;28;811;-63
2022/06/17 11:04:32;;;;;;;;;;;;;;;31.70;31.14;99821.28;5052159;28;822;-64
2022/06/17 11:07:00;;;;;;;;;;;;;;;31.67;29.94;99823.16;5052088;28;869;-64
2022/06/17 11:09:30;;;;;;;;;;;;;;;31.83;29.36;99821.25;5052049;28;774;-65
2022/06/17 11:12:10;;;;;;;;;;;;;;;32.03;29.65;99813.31;5051957;28;836;-64
2022/06/17 11:14:39;;;;;;;;;;;;;;;32.09;29.43;99816.81;5051963;28;834;-64
2022/06/17 11:17:12;;;;;;;;;;;;;;;32.39;30.34;99818.50;5051883;28;894;-64
2022/06/17 11:19:40;;;;;;;;;;;;;;;32.54;29.53;99810.88;5051845;28;826;-63
2022/06/17 11:22:15;;;;;;;;;;;;;;;32.45;29.88;99817.03;5051759;28;810;-63
2022/06/17 11:24:48;;;;;;;;;;;;;;;32.30;29.72;99806.22;5051830;28;857;-65
2022/06/17 11:27:23;;;;;;;;;;;;;;;32.33;29.84;99816.56;5051724;28;803;-65
2022/06/17 11:29:50;;;;;;;;;;;;;;;32.62;29.62;99807.31;5050407;28;1443;-65
2022/06/17 11:32:20;;;;;;;;;;;;;;;32.87;29.68;99805.66;5051338;28;1894;-63
2022/06/17 11:34:58;;;;;;;;;;;;;;;32.91;28.69;99805.31;5051540;28;869;-63
2022/06/17 11:37:26;;;;;;;;;;;;;;;33.26;27.99;99797.38;5051677;28;822;-64
2022/06/17 11:40:11;;;;;;;;;;;;;;;33.72;28.12;99795.56;5051553;28;810;-65
2022/06/17 11:42:58;;;;;;;;;;;;;;;34.15;27.80;99799.03;5050242;28;1171;-65
2022/06/17 11:45:30;;;;;;;;;;;;;;;34.46;27.24;99796.22;5051346;28;1172;-65
2022/06/17 11:48:02;;;;;;;;;;;;;;;34.59;25.96;99798.94;5051487;28;917;-65
2022/06/17 11:50:31;;;;;;;;;;;;;;;34.66;26.64;99788.81;5051481;28;877;-64
2022/06/17 11:53:08;;;;;;;;;;;;;;;34.65;26.16;99793.78;5051571;28;1945;-64
2022/06/17 11:55:45;;;;;;;;;;;;;;;34.50;26.07;99790.88;5051449;28;854;-64
2022/06/17 11:58:13;;;;;;;;;;;;;;;35.00;26.08;99785.56;5051695;28;810;-63
2022/06/17 12:00:43;;;;;;;;;;;;;;;35.12;26.67;99785.91;5051591;28;794;-66
2022/06/17 12:03:10;;;;;;;;;;;;;;;35.55;25.69;99787.78;5051347;28;806;-65
2022/06/17 12:05:39;;;;;;;;;;;;;;;35.90;25.69;99790.19;5051623;28;901;-63
2022/06/17 12:08:17;;;;;;;;;;;;;;;35.86;25.07;99790.56;5051257;28;856;-65
2022/06/17 12:10:50;;;;;;;;;;;;;;;35.51;25.53;99790.28;5051252;28;846;-64
2022/06/17 12:13:20;;;;;;;;;;;;;;;35.19;26.03;99785.19;5051245;28;1963;-65
2022/06/17 12:15:50;;;;;;;;;;;;;;;34.81;25.68;99782.31;5051463;28;815;-64
2022/06/17 12:18:26;;;;;;;;;;;;;;;34.83;25.68;99786.16;5051514;28;873;-64
2022/06/17 12:20:55;;;;;;;;;;;;;;;35.03;26.47;99789.38;5051152;28;815;-64
2022/06/17 12:23:26;;;;;;;;;;;;;;;35.32;25.83;99784.22;5051156;28;814;-65
2022/06/17 12:25:57;;;;;;;;;;;;;;;36.13;24.65;99787.22;5051447;28;892;-65
2022/06/17 12:28:30;;;;;;;;;;;;;;;36.06;24.57;99782.22;5051020;28;845;-65
2022/06/17 12:31:17;;;;;;;;;;;;;;;36.41;24.30;99782.44;5051148;28;1363;-65
2022/06/17 12:33:50;;;;;;;;;;;;;;;36.22;24.20;99783.72;5040560;28;1905;-66
2022/06/17 12:36:22;;;;;;;;;;;;;;;35.99;24.69;99778.81;5051012;28;857;-65
2022/06/17 12:38:55;;;;;;;;;;;;;;;35.80;25.52;99780.63;5051642;28;802;-64
2022/06/17 12:41:35;;;;;;;;;;;;;;;35.93;25.44;99784.03;5050932;28;920;-64
2022/06/17 12:44:09;;;;;;;;;;;;;;;35.88;25.63;99784.25;5050968;28;853;-65
2022/06/17 12:47:05;;;;;;;;;;;;;;;35.17;25.38;99796.50;5051943;28;881;-64
2022/06/17 12:55:27;;;;;;;;;;;;;;;34.85;25.44;99794.94;4993245;28;605;-65
2022/06/17 12:58:05;;;;;;;;;;;;;;;34.72;26.31;99783.66;4993075;28;811;-65
2022/06/17 13:00:51;;;;;;;;;;;;;;;35.14;25.40;99780.41;4993249;28;1054;-65
2022/06/17 13:03:26;;;;;;;;;;;;;;;34.82;25.86;99775.22;4993077;28;740;-65
2022/06/17 13:05:54;;;;;;;;;;;;;;;34.66;26.03;99783.09;4993041;28;1159;-65
2022/06/17 13:08:29;;;;;;;;;;;;;;;34.62;26.27;99777.69;4992899;28;810;-65
2022/06/17 13:11:02;;;;;;;;;;;;;;;34.19;26.16;99785.06;4992914;28;890;-63
2022/06/17 13:13:35;;;;;;;;;;;;;;;34.11;26.48;99776.41;4992884;28;1890;-64
2022/06/17 13:16:06;;;;;;;;;;;;;;;33.66;26.81;99774.16;4992798;28;811;-64
2022/06/17 13:18:39;;;;;;;;;;;;;;;32.51;27.93;99774.00;4992678;28;1132;-64
2022/06/17 13:21:15;;;;;;;;;;;;;;;31.63;29.20;99773.38;4992730;28;795;-65
2022/06/17 13:23:52;;;;;;;;;;;;;;;31.34;29.51;99773.94;4992687;28;893;-64
2022/06/17 13:26:29;;;;;;;;;;;;;;;30.96;30.37;99767.63;5033510;28;1072;-65
2022/06/17 13:29:00;;;;;;;;;;;;;;;32.07;30.45;99771.66;5053837;28;823;-64
2022/06/17 13:31:51;;;;;;;;;;;;;;;32.97;27.84;99768.72;5053682;28;1230;-64
2022/06/17 13:34:31;;;;;;;;;;;;;;;33.94;27.60;99770.44;5053985;28;1910;-63
2022/06/17 13:37:08;;;;;;;;;;;;;;;33.87;26.46;99754.75;5053763;28;932;-65
2022/06/17 13:39:38;;;;;;;;;;;;;;;33.97;26.70;99754.97;5052455;28;1278;-64
2022/06/17 13:42:11;;;;;;;;;;;;;;;34.16;26.78;99758.31;5053701;28;799;-65
2022/06/17 13:44:46;;;;;;;;;;;;;;;34.00;26.29;99753.06;5053743;28;860;-65
2022/06/17 13:47:21;;;;;;;;;;;;;;;33.55;26.74;99749.44;5053705;28;838;-65
2022/06/17 13:49:54;;;;;;;;;;;;;;;33.15;26.70;99741.94;5053522;28;1013;-65
2022/06/17 13:52:21;;;;;;;;;;;;;;;32.57;26.42;99746.06;5053643;28;1882;-64
2022/06/17 13:54:58;;;;;;;;;;;;;;;32.01;26.84;99744.53;5053743;28;810;-65
2022/06/17 13:57:34;;;;;;;;;;;;;;;31.32;28.03;99744.38;5053295;28;810;-65
2022/06/17 14:00:20;;;;;;;;;;;;;;;30.96;28.29;99750.53;5053142;28;842;-64
2022/06/17 14:02:55;;;;;;;;;;;;;;;30.70;28.34;99734.06;5053284;28;881;-65
2022/06/17 14:05:21;;;;;;;;;;;;;;;30.57;29.41;99731.97;5053361;28;846;-63
2022/06/17 14:07:51;;;;;;;;;;;;;;;30.29;30.01;99738.13;5051886;28;1408;-64
2022/06/17 14:10:29;;;;;;;;;;;;;;;29.95;30.78;99735.75;5053155;28;837;-64
2022/06/17 14:12:56;;;;;;;;;;;;;;;29.64;31.57;99735.13;5051754;28;1878;-64
2022/06/17 14:15:26;;;;;;;;;;;;;;;29.33;31.07;99722.31;5053119;28;822;-64
2022/06/17 14:17:54;;;;;;;;;;;;;;;28.92;31.27;99734.63;5053255;28;822;-64
2022/06/17 14:20:27;;;;;;;;;;;;;;;28.63;31.72;99745.47;5053037;28;822;-64
2022/06/17 14:23:12;;;;;;;;;;;;;;;28.40;32.04;99735.56;5052889;28;826;-64